KBDE/BDE METAR and TAF weather

Enter ICAO airport designator
Station Type Date Time Source
KBDE METAR 2021/09/28 14:53 UTC NOAA

KBDE 281453Z AUTO 19006KT 10SM CLR 17/12 A2984 RMK AO2 SLP106 T01720117 50000 $


Station Type Date Time Source
KBDE Decoded METAR 2021/09/28 14:53 UTC NOAA

BAUDETTE INTERNATIONAL AIRPORT, MN, United States (KBDE) 48-44N 94-37W 329M
Sep 28, 2021 - 10:53 AM EDT / 2021.09.28 1453 UTC
Wind: from the S (190 degrees) at 7 MPH (6 KT):0
Visibility: 10 mile(s):0
Sky conditions: clear
Temperature: 63.0 F (17.2 C)
Dew Point: 53.1 F (11.7 C)
Relative Humidity: 70%
Pressure (altimeter): 29.84 in. Hg (1010 hPa)
Pressure tendency: 0.00 inches (0.0 hPa) higher than three hours ago
ob: KBDE 281453Z AUTO 19006KT 10SM CLR 17/12 A2984 RMK AO2 SLP106 T01720117 50000
cycle: 15

Station Type Date Time Source
KBDE TAF UTC NOAA

Error!

Example: see airport list